Terminal Aerodrome Forecast
Issued by NWS

Home | Current Version | Previous Version | Text Only | Print | Product List | Glossary Off
Versions: 1 2 3 4 5 6 7 8 9 10 11 12 13 14 15

820
FTUS43 KICT 011720
TAFCNU
TAF
KCNU 011720Z 0118/0218 30013KT P6SM BKN030
     FM011900 32013KT P6SM BKN035
     FM020000 34009KT P6SM OVC040
     FM020900 35007KT P6SM VCSH OVC015
     FM021600 34008KT P6SM OVC025=

USA.gov is the U.S. government's official web portal to all federal, state and local government web resources and services.